sensor_id;sensor_type;location;lat;lon;timestamp;P1;durP1;ratioP1;P2;durP2;ratioP2
44764;SDS011;30484;52.382;5.260;2024-03-02T00:02:04;4.55;;;1.80;;
44764;SDS011;30484;52.382;5.260;2024-03-02T00:04:34;4.45;;;1.58;;
44764;SDS011;30484;52.382;5.260;2024-03-02T00:07:02;4.63;;;1.65;;
44764;SDS011;30484;52.382;5.260;2024-03-02T00:09:34;5.68;;;1.75;;
44764;SDS011;30484;52.382;5.260;2024-03-02T00:12:03;3.45;;;1.60;;
44764;SDS011;30484;52.382;5.260;2024-03-02T00:14:34;3.53;;;1.52;;
44764;SDS011;30484;52.382;5.260;2024-03-02T00:17:02;4.68;;;1.80;;
44764;SDS011;30484;52.382;5.260;2024-03-02T00:19:31;3.70;;;1.50;;
44764;SDS011;30484;52.382;5.260;2024-03-02T00:22:00;4.35;;;1.70;;
44764;SDS011;30484;52.382;5.260;2024-03-02T00:24:30;7.05;;;1.85;;
44764;SDS011;30484;52.382;5.260;2024-03-02T00:27:01;4.13;;;1.77;;
44764;SDS011;30484;52.382;5.260;2024-03-02T00:29:34;8.45;;;2.17;;
44764;SDS011;30484;52.382;5.260;2024-03-02T00:32:03;3.83;;;1.50;;
44764;SDS011;30484;52.382;5.260;2024-03-02T00:34:39;7.88;;;1.88;;
44764;SDS011;30484;52.382;5.260;2024-03-02T00:37:08;5.30;;;1.85;;
44764;SDS011;30484;52.382;5.260;2024-03-02T00:39:38;5.32;;;1.65;;
44764;SDS011;30484;52.382;5.260;2024-03-02T00:42:06;4.38;;;1.45;;
44764;SDS011;30484;52.382;5.260;2024-03-02T00:44:36;4.07;;;1.35;;
44764;SDS011;30484;52.382;5.260;2024-03-02T00:47:05;6.13;;;1.75;;
44764;SDS011;30484;52.382;5.260;2024-03-02T00:49:34;4.40;;;1.55;;
44764;SDS011;30484;52.382;5.260;2024-03-02T00:52:06;3.72;;;1.75;;
44764;SDS011;30484;52.382;5.260;2024-03-02T00:54:35;5.45;;;1.55;;
44764;SDS011;30484;52.382;5.260;2024-03-02T00:57:04;3.25;;;1.02;;
44764;SDS011;30484;52.382;5.260;2024-03-02T00:59:32;7.28;;;1.38;;
44764;SDS011;30484;52.382;5.260;2024-03-02T01:02:02;3.03;;;0.75;;
44764;SDS011;30484;52.382;5.260;2024-03-02T01:04:33;2.10;;;0.60;;
44764;SDS011;30484;52.382;5.260;2024-03-02T01:07:01;0.93;;;0.40;;
44764;SDS011;30484;52.382;5.260;2024-03-02T01:09:29;0.98;;;0.45;;
44764;SDS011;30484;52.382;5.260;2024-03-02T01:11:58;1.48;;;0.55;;
44764;SDS011;30484;52.382;5.260;2024-03-02T01:14:26;1.17;;;0.50;;
44764;SDS011;30484;52.382;5.260;2024-03-02T01:16:55;0.95;;;0.40;;
44764;SDS011;30484;52.382;5.260;2024-03-02T01:19:25;1.70;;;0.40;;
44764;SDS011;30484;52.382;5.260;2024-03-02T01:21:54;1.95;;;0.50;;
44764;SDS011;30484;52.382;5.260;2024-03-02T01:24:23;1.73;;;0.60;;
44764;SDS011;30484;52.382;5.260;2024-03-02T01:26:51;1.27;;;0.55;;
44764;SDS011;30484;52.382;5.260;2024-03-02T01:29:19;1.10;;;0.40;;
44764;SDS011;30484;52.382;5.260;2024-03-02T01:31:49;1.42;;;0.40;;
44764;SDS011;30484;52.382;5.260;2024-03-02T01:34:19;1.13;;;0.50;;
44764;SDS011;30484;52.382;5.260;2024-03-02T01:36:49;1.77;;;0.60;;
44764;SDS011;30484;52.382;5.260;2024-03-02T01:39:18;1.20;;;0.40;;
44764;SDS011;30484;52.382;5.260;2024-03-02T01:41:46;1.55;;;0.70;;
44764;SDS011;30484;52.382;5.260;2024-03-02T01:44:15;1.38;;;0.50;;
44764;SDS011;30484;52.382;5.260;2024-03-02T01:46:43;1.00;;;0.50;;
44764;SDS011;30484;52.382;5.260;2024-03-02T01:49:12;2.15;;;0.65;;
44764;SDS011;30484;52.382;5.260;2024-03-02T01:51:41;1.58;;;0.57;;
44764;SDS011;30484;52.382;5.260;2024-03-02T01:54:11;0.60;;;0.50;;
44764;SDS011;30484;52.382;5.260;2024-03-02T01:56:39;1.27;;;0.70;;
44764;SDS011;30484;52.382;5.260;2024-03-02T01:59:08;1.65;;;0.50;;
44764;SDS011;30484;52.382;5.260;2024-03-02T02:01:36;2.08;;;0.77;;
44764;SDS011;30484;52.382;5.260;2024-03-02T02:04:05;1.40;;;0.60;;
44764;SDS011;30484;52.382;5.260;2024-03-02T02:06:34;1.00;;;0.45;;
44764;SDS011;30484;52.382;5.260;2024-03-02T02:09:02;0.95;;;0.60;;
44764;SDS011;30484;52.382;5.260;2024-03-02T02:11:32;1.42;;;0.60;;
44764;SDS011;30484;52.382;5.260;2024-03-02T02:14:01;0.65;;;0.50;;
44764;SDS011;30484;52.382;5.260;2024-03-02T02:16:30;1.10;;;0.60;;
44764;SDS011;30484;52.382;5.260;2024-03-02T02:18:58;1.33;;;0.80;;
44764;SDS011;30484;52.382;5.260;2024-03-02T02:21:28;1.55;;;0.60;;
44764;SDS011;30484;52.382;5.260;2024-03-02T02:23:57;1.58;;;0.70;;
44764;SDS011;30484;52.382;5.260;2024-03-02T02:26:25;1.67;;;0.80;;
44764;SDS011;30484;52.382;5.260;2024-03-02T02:28:54;1.15;;;0.60;;
44764;SDS011;30484;52.382;5.260;2024-03-02T02:31:22;0.98;;;0.65;;
44764;SDS011;30484;52.382;5.260;2024-03-02T02:33:51;1.30;;;0.77;;
44764;SDS011;30484;52.382;5.260;2024-03-02T02:36:19;1.20;;;0.80;;
44764;SDS011;30484;52.382;5.260;2024-03-02T02:38:49;1.23;;;0.98;;
44764;SDS011;30484;52.382;5.260;2024-03-02T02:41:18;1.23;;;0.80;;
44764;SDS011;30484;52.382;5.260;2024-03-02T02:43:46;1.00;;;0.73;;
44764;SDS011;30484;52.382;5.260;2024-03-02T02:46:15;2.17;;;0.90;;
44764;SDS011;30484;52.382;5.260;2024-03-02T02:48:43;0.93;;;0.65;;
44764;SDS011;30484;52.382;5.260;2024-03-02T02:51:12;2.75;;;1.02;;
44764;SDS011;30484;52.382;5.260;2024-03-02T02:53:40;2.28;;;1.00;;
44764;SDS011;30484;52.382;5.260;2024-03-02T02:56:10;1.23;;;0.80;;
44764;SDS011;30484;52.382;5.260;2024-03-02T02:58:39;1.35;;;0.50;;
44764;SDS011;30484;52.382;5.260;2024-03-02T03:01:08;1.20;;;0.60;;
44764;SDS011;30484;52.382;5.260;2024-03-02T03:03:37;3.05;;;0.50;;
44764;SDS011;30484;52.382;5.260;2024-03-02T03:06:06;2.65;;;0.80;;
44764;SDS011;30484;52.382;5.260;2024-03-02T03:08:34;2.58;;;0.73;;
44764;SDS011;30484;52.382;5.260;2024-03-02T03:11:03;1.20;;;0.85;;
44764;SDS011;30484;52.382;5.260;2024-03-02T03:13:34;1.23;;;0.75;;
44764;SDS011;30484;52.382;5.260;2024-03-02T03:16:03;1.45;;;0.70;;
44764;SDS011;30484;52.382;5.260;2024-03-02T03:18:34;3.22;;;0.80;;
44764;SDS011;30484;52.382;5.260;2024-03-02T03:21:03;2.67;;;0.82;;
44764;SDS011;30484;52.382;5.260;2024-03-02T03:23:32;3.33;;;0.85;;
44764;SDS011;30484;52.382;5.260;2024-03-02T03:26:01;0.80;;;0.65;;
44764;SDS011;30484;52.382;5.260;2024-03-02T03:28:30;1.75;;;0.90;;
44764;SDS011;30484;52.382;5.260;2024-03-02T03:31:00;3.97;;;0.82;;
44764;SDS011;30484;52.382;5.260;2024-03-02T03:33:30;1.75;;;0.90;;
44764;SDS011;30484;52.382;5.260;2024-03-02T03:35:58;1.52;;;0.80;;
44764;SDS011;30484;52.382;5.260;2024-03-02T03:38:27;1.98;;;1.08;;
44764;SDS011;30484;52.382;5.260;2024-03-02T03:40:55;0.90;;;0.70;;
44764;SDS011;30484;52.382;5.260;2024-03-02T03:43:23;2.55;;;0.70;;
44764;SDS011;30484;52.382;5.260;2024-03-02T03:45:52;3.33;;;0.95;;
44764;SDS011;30484;52.382;5.260;2024-03-02T03:48:22;2.40;;;0.70;;
44764;SDS011;30484;52.382;5.260;2024-03-02T03:50:57;2.97;;;0.90;;
44764;SDS011;30484;52.382;5.260;2024-03-02T03:53:25;1.60;;;0.65;;
44764;SDS011;30484;52.382;5.260;2024-03-02T03:55:54;3.00;;;0.90;;
44764;SDS011;30484;52.382;5.260;2024-03-02T03:58:22;2.15;;;0.90;;
44764;SDS011;30484;52.382;5.260;2024-03-02T04:00:50;2.08;;;0.63;;
44764;SDS011;30484;52.382;5.260;2024-03-02T04:03:19;2.47;;;0.80;;
44764;SDS011;30484;52.382;5.260;2024-03-02T04:05:49;1.60;;;0.90;;
44764;SDS011;30484;52.382;5.260;2024-03-02T04:08:17;2.70;;;0.68;;
44764;SDS011;30484;52.382;5.260;2024-03-02T04:10:46;5.63;;;0.90;;
44764;SDS011;30484;52.382;5.260;2024-03-02T04:13:15;1.08;;;0.65;;
44764;SDS011;30484;52.382;5.260;2024-03-02T04:15:43;2.60;;;0.68;;
44764;SDS011;30484;52.382;5.260;2024-03-02T04:18:11;2.65;;;0.60;;
44764;SDS011;30484;52.382;5.260;2024-03-02T04:20:40;3.85;;;0.70;;
44764;SDS011;30484;52.382;5.260;2024-03-02T04:23:10;5.57;;;0.82;;
44764;SDS011;30484;52.382;5.260;2024-03-02T04:25:38;2.33;;;0.73;;
44764;SDS011;30484;52.382;5.260;2024-03-02T04:28:09;1.65;;;0.60;;
44764;SDS011;30484;52.382;5.260;2024-03-02T04:30:39;2.67;;;0.70;;
44764;SDS011;30484;52.382;5.260;2024-03-02T04:33:07;1.90;;;0.80;;
44764;SDS011;30484;52.382;5.260;2024-03-02T04:35:36;4.13;;;0.63;;
44764;SDS011;30484;52.382;5.260;2024-03-02T04:38:05;3.88;;;1.10;;
44764;SDS011;30484;52.382;5.260;2024-03-02T04:40:35;3.03;;;0.93;;
44764;SDS011;30484;52.382;5.260;2024-03-02T04:43:03;2.38;;;0.75;;
44764;SDS011;30484;52.382;5.260;2024-03-02T04:45:32;2.13;;;0.73;;
44764;SDS011;30484;52.382;5.260;2024-03-02T04:48:01;3.67;;;0.82;;
44764;SDS011;30484;52.382;5.260;2024-03-02T04:50:29;2.47;;;0.80;;
44764;SDS011;30484;52.382;5.260;2024-03-02T04:52:58;3.15;;;1.00;;
44764;SDS011;30484;52.382;5.260;2024-03-02T04:55:26;8.60;;;2.70;;
44764;SDS011;30484;52.382;5.260;2024-03-02T04:58:25;6.07;;;2.80;;
44764;SDS011;30484;52.382;5.260;2024-03-02T05:00:53;5.10;;;2.60;;
44764;SDS011;30484;52.382;5.260;2024-03-02T05:03:23;14.07;;;4.72;;
44764;SDS011;30484;52.382;5.260;2024-03-02T05:05:51;4.15;;;1.33;;
44764;SDS011;30484;52.382;5.260;2024-03-02T05:08:20;1.55;;;0.60;;
44764;SDS011;30484;52.382;5.260;2024-03-02T05:10:49;3.42;;;0.80;;
44764;SDS011;30484;52.382;5.260;2024-03-02T05:13:17;1.63;;;0.60;;
44764;SDS011;30484;52.382;5.260;2024-03-02T05:15:48;3.30;;;0.70;;
44764;SDS011;30484;52.382;5.260;2024-03-02T05:18:17;1.48;;;0.70;;
44764;SDS011;30484;52.382;5.260;2024-03-02T05:20:45;3.15;;;0.80;;
44764;SDS011;30484;52.382;5.260;2024-03-02T05:23:14;1.58;;;0.75;;
44764;SDS011;30484;52.382;5.260;2024-03-02T05:25:42;4.28;;;0.70;;
44764;SDS011;30484;52.382;5.260;2024-03-02T05:28:11;2.38;;;0.80;;
44764;SDS011;30484;52.382;5.260;2024-03-02T05:30:40;2.88;;;0.80;;
44764;SDS011;30484;52.382;5.260;2024-03-02T05:33:11;2.88;;;0.80;;
44764;SDS011;30484;52.382;5.260;2024-03-02T05:35:40;2.80;;;0.90;;
44764;SDS011;30484;52.382;5.260;2024-03-02T05:38:08;1.48;;;0.63;;
44764;SDS011;30484;52.382;5.260;2024-03-02T05:40:37;2.10;;;0.80;;
44764;SDS011;30484;52.382;5.260;2024-03-02T05:43:06;2.42;;;0.90;;
44764;SDS011;30484;52.382;5.260;2024-03-02T05:45:34;3.45;;;0.80;;
44764;SDS011;30484;52.382;5.260;2024-03-02T05:48:03;3.38;;;0.98;;
44764;SDS011;30484;52.382;5.260;2024-03-02T05:50:33;3.95;;;0.85;;
44764;SDS011;30484;52.382;5.260;2024-03-02T05:53:02;3.45;;;0.80;;
44764;SDS011;30484;52.382;5.260;2024-03-02T05:55:31;5.15;;;1.33;;
44764;SDS011;30484;52.382;5.260;2024-03-02T05:57:59;2.70;;;0.85;;
44764;SDS011;30484;52.382;5.260;2024-03-02T06:00:44;6.85;;;0.95;;
44764;SDS011;30484;52.382;5.260;2024-03-02T06:03:12;1.98;;;0.77;;
44764;SDS011;30484;52.382;5.260;2024-03-02T06:05:42;3.88;;;0.77;;
44764;SDS011;30484;52.382;5.260;2024-03-02T06:08:11;2.63;;;0.80;;
44764;SDS011;30484;52.382;5.260;2024-03-02T06:10:39;1.85;;;0.75;;
44764;SDS011;30484;52.382;5.260;2024-03-02T06:13:08;2.92;;;0.73;;
44764;SDS011;30484;52.382;5.260;2024-03-02T06:15:36;2.08;;;0.52;;
44764;SDS011;30484;52.382;5.260;2024-03-02T06:18:05;2.50;;;0.68;;
44764;SDS011;30484;52.382;5.260;2024-03-02T06:20:34;6.53;;;0.77;;
44764;SDS011;30484;52.382;5.260;2024-03-02T06:23:04;1.60;;;0.77;;
44764;SDS011;30484;52.382;5.260;2024-03-02T06:25:33;5.05;;;1.15;;
44764;SDS011;30484;52.382;5.260;2024-03-02T06:28:02;1.30;;;0.80;;
44764;SDS011;30484;52.382;5.260;2024-03-02T06:30:31;1.35;;;0.60;;
44764;SDS011;30484;52.382;5.260;2024-03-02T06:33:00;4.13;;;0.70;;
44764;SDS011;30484;52.382;5.260;2024-03-02T06:35:30;2.60;;;0.60;;
44764;SDS011;30484;52.382;5.260;2024-03-02T06:37:59;3.25;;;0.70;;
44764;SDS011;30484;52.382;5.260;2024-03-02T06:40:29;11.40;;;1.67;;
44764;SDS011;30484;52.382;5.260;2024-03-02T06:42:57;3.65;;;0.82;;
44764;SDS011;30484;52.382;5.260;2024-03-02T06:45:26;3.58;;;0.90;;
44764;SDS011;30484;52.382;5.260;2024-03-02T06:47:57;4.90;;;0.75;;
44764;SDS011;30484;52.382;5.260;2024-03-02T06:50:25;2.20;;;0.75;;
44764;SDS011;30484;52.382;5.260;2024-03-02T06:52:54;2.42;;;0.95;;
44764;SDS011;30484;52.382;5.260;2024-03-02T06:55:23;3.25;;;0.77;;
44764;SDS011;30484;52.382;5.260;2024-03-02T06:57:54;2.33;;;0.73;;
44764;SDS011;30484;52.382;5.260;2024-03-02T07:00:22;6.88;;;0.73;;
44764;SDS011;30484;52.382;5.260;2024-03-02T07:02:51;2.30;;;0.50;;
44764;SDS011;30484;52.382;5.260;2024-03-02T07:05:19;5.05;;;0.88;;
44764;SDS011;30484;52.382;5.260;2024-03-02T07:07:48;4.50;;;0.90;;
44764;SDS011;30484;52.382;5.260;2024-03-02T07:10:16;2.35;;;0.63;;
44764;SDS011;30484;52.382;5.260;2024-03-02T07:12:45;3.70;;;0.80;;
44764;SDS011;30484;52.382;5.260;2024-03-02T07:15:15;2.88;;;0.80;;
44764;SDS011;30484;52.382;5.260;2024-03-02T07:17:56;2.58;;;0.80;;
44764;SDS011;30484;52.382;5.260;2024-03-02T07:20:25;2.97;;;0.80;;
44764;SDS011;30484;52.382;5.260;2024-03-02T07:22:53;2.20;;;0.75;;
44764;SDS011;30484;52.382;5.260;2024-03-02T07:25:21;3.80;;;0.88;;
44764;SDS011;30484;52.382;5.260;2024-03-02T07:27:53;3.03;;;0.95;;
44764;SDS011;30484;52.382;5.260;2024-03-02T07:30:22;2.78;;;0.70;;
44764;SDS011;30484;52.382;5.260;2024-03-02T07:32:51;3.95;;;0.90;;
44764;SDS011;30484;52.382;5.260;2024-03-02T07:35:19;5.50;;;0.90;;
44764;SDS011;30484;52.382;5.260;2024-03-02T07:37:48;3.92;;;1.13;;
44764;SDS011;30484;52.382;5.260;2024-03-02T07:40:17;3.45;;;0.70;;
44764;SDS011;30484;52.382;5.260;2024-03-02T07:42:46;2.38;;;0.47;;
44764;SDS011;30484;52.382;5.260;2024-03-02T07:45:14;5.80;;;0.73;;
44764;SDS011;30484;52.382;5.260;2024-03-02T07:47:45;2.58;;;1.13;;
44764;SDS011;30484;52.382;5.260;2024-03-02T07:50:14;2.65;;;0.60;;
44764;SDS011;30484;52.382;5.260;2024-03-02T07:52:42;3.65;;;0.95;;
44764;SDS011;30484;52.382;5.260;2024-03-02T07:55:11;3.65;;;0.65;;
44764;SDS011;30484;52.382;5.260;2024-03-02T07:57:40;5.82;;;0.93;;
44764;SDS011;30484;52.382;5.260;2024-03-02T08:00:09;4.22;;;0.80;;
44764;SDS011;30484;52.382;5.260;2024-03-02T08:02:41;1.77;;;0.57;;
44764;SDS011;30484;52.382;5.260;2024-03-02T08:05:11;5.20;;;0.77;;
44764;SDS011;30484;52.382;5.260;2024-03-02T08:07:39;3.05;;;0.70;;
44764;SDS011;30484;52.382;5.260;2024-03-02T08:10:08;3.47;;;0.98;;
44764;SDS011;30484;52.382;5.260;2024-03-02T08:12:37;3.60;;;0.80;;
44764;SDS011;30484;52.382;5.260;2024-03-02T08:15:06;3.38;;;0.90;;
44764;SDS011;30484;52.382;5.260;2024-03-02T08:17:35;6.43;;;1.02;;
44764;SDS011;30484;52.382;5.260;2024-03-02T08:20:04;2.85;;;0.73;;
44764;SDS011;30484;52.382;5.260;2024-03-02T08:22:37;3.83;;;0.80;;
44764;SDS011;30484;52.382;5.260;2024-03-02T08:25:06;2.30;;;0.60;;
44764;SDS011;30484;52.382;5.260;2024-03-02T08:27:36;5.88;;;1.08;;
44764;SDS011;30484;52.382;5.260;2024-03-02T08:30:06;6.13;;;0.90;;
44764;SDS011;30484;52.382;5.260;2024-03-02T08:32:37;4.10;;;0.90;;
44764;SDS011;30484;52.382;5.260;2024-03-02T08:35:06;6.07;;;0.93;;
44764;SDS011;30484;52.382;5.260;2024-03-02T08:37:37;3.75;;;0.98;;
44764;SDS011;30484;52.382;5.260;2024-03-02T08:40:09;9.13;;;1.65;;
44764;SDS011;30484;52.382;5.260;2024-03-02T08:42:43;8.50;;;1.20;;
44764;SDS011;30484;52.382;5.260;2024-03-02T08:45:12;5.15;;;0.82;;
44764;SDS011;30484;52.382;5.260;2024-03-02T08:47:42;5.35;;;1.02;;
44764;SDS011;30484;52.382;5.260;2024-03-02T08:50:10;7.10;;;1.10;;
44764;SDS011;30484;52.382;5.260;2024-03-02T08:52:40;3.47;;;0.95;;
44764;SDS011;30484;52.382;5.260;2024-03-02T08:55:09;5.22;;;0.80;;
44764;SDS011;30484;52.382;5.260;2024-03-02T08:57:38;3.63;;;0.80;;
44764;SDS011;30484;52.382;5.260;2024-03-02T09:00:08;5.80;;;0.60;;
44764;SDS011;30484;52.382;5.260;2024-03-02T09:02:38;5.07;;;0.90;;
44764;SDS011;30484;52.382;5.260;2024-03-02T09:05:07;8.70;;;1.25;;
44764;SDS011;30484;52.382;5.260;2024-03-02T09:07:36;3.20;;;0.80;;
44764;SDS011;30484;52.382;5.260;2024-03-02T09:10:07;2.53;;;0.75;;
44764;SDS011;30484;52.382;5.260;2024-03-02T09:12:37;6.00;;;1.00;;
44764;SDS011;30484;52.382;5.260;2024-03-02T09:15:06;4.82;;;1.15;;
44764;SDS011;30484;52.382;5.260;2024-03-02T09:17:35;8.18;;;1.08;;
44764;SDS011;30484;52.382;5.260;2024-03-02T09:20:04;5.97;;;1.00;;
44764;SDS011;30484;52.382;5.260;2024-03-02T09:22:34;3.13;;;0.88;;
44764;SDS011;30484;52.382;5.260;2024-03-02T09:25:02;6.22;;;1.08;;
44764;SDS011;30484;52.382;5.260;2024-03-02T09:27:33;4.22;;;0.90;;
44764;SDS011;30484;52.382;5.260;2024-03-02T09:30:04;4.28;;;0.90;;
44764;SDS011;30484;52.382;5.260;2024-03-02T09:32:36;7.68;;;1.20;;
44764;SDS011;30484;52.382;5.260;2024-03-02T09:35:05;9.25;;;0.95;;
44764;SDS011;30484;52.382;5.260;2024-03-02T09:37:35;10.68;;;1.00;;
44764;SDS011;30484;52.382;5.260;2024-03-02T09:40:04;8.50;;;1.15;;
44764;SDS011;30484;52.382;5.260;2024-03-02T09:42:36;7.93;;;1.05;;
44764;SDS011;30484;52.382;5.260;2024-03-02T09:45:06;9.15;;;1.10;;
44764;SDS011;30484;52.382;5.260;2024-03-02T09:47:36;5.05;;;1.08;;
44764;SDS011;30484;52.382;5.260;2024-03-02T09:50:06;6.32;;;1.27;;
44764;SDS011;30484;52.382;5.260;2024-03-02T09:52:36;4.97;;;1.05;;
44764;SDS011;30484;52.382;5.260;2024-03-02T09:55:05;12.02;;;1.40;;
44764;SDS011;30484;52.382;5.260;2024-03-02T09:57:36;4.40;;;0.80;;
44764;SDS011;30484;52.382;5.260;2024-03-02T10:00:07;8.48;;;1.27;;
44764;SDS011;30484;52.382;5.260;2024-03-02T10:02:41;4.63;;;1.00;;
44764;SDS011;30484;52.382;5.260;2024-03-02T10:05:10;4.65;;;1.23;;
44764;SDS011;30484;52.382;5.260;2024-03-02T10:07:39;9.23;;;1.20;;
44764;SDS011;30484;52.382;5.260;2024-03-02T10:10:14;6.38;;;1.10;;
44764;SDS011;30484;52.382;5.260;2024-03-02T10:12:45;6.80;;;1.13;;
44764;SDS011;30484;52.382;5.260;2024-03-02T10:15:13;4.40;;;0.80;;
44764;SDS011;30484;52.382;5.260;2024-03-02T10:17:52;11.60;;;1.40;;
44764;SDS011;30484;52.382;5.260;2024-03-02T10:20:22;8.82;;;1.52;;
44764;SDS011;30484;52.382;5.260;2024-03-02T10:22:51;11.50;;;1.60;;
44764;SDS011;30484;52.382;5.260;2024-03-02T10:25:29;8.98;;;1.30;;
44764;SDS011;30484;52.382;5.260;2024-03-02T10:28:17;4.43;;;1.15;;
44764;SDS011;30484;52.382;5.260;2024-03-02T10:30:47;6.78;;;1.25;;
44764;SDS011;30484;52.382;5.260;2024-03-02T10:33:18;8.20;;;1.27;;
44764;SDS011;30484;52.382;5.260;2024-03-02T10:35:47;7.38;;;1.10;;
44764;SDS011;30484;52.382;5.260;2024-03-02T10:38:17;9.15;;;1.33;;
44764;SDS011;30484;52.382;5.260;2024-03-02T10:40:47;4.93;;;1.10;;
44764;SDS011;30484;52.382;5.260;2024-03-02T10:43:17;7.28;;;1.23;;
44764;SDS011;30484;52.382;5.260;2024-03-02T10:45:49;6.28;;;1.15;;
44764;SDS011;30484;52.382;5.260;2024-03-02T10:48:18;8.43;;;1.30;;
44764;SDS011;30484;52.382;5.260;2024-03-02T10:50:47;5.88;;;1.20;;
44764;SDS011;30484;52.382;5.260;2024-03-02T10:53:17;5.68;;;1.25;;
44764;SDS011;30484;52.382;5.260;2024-03-02T10:55:46;7.78;;;1.38;;
44764;SDS011;30484;52.382;5.260;2024-03-02T10:58:31;8.88;;;1.25;;
44764;SDS011;30484;52.382;5.260;2024-03-02T11:01:03;8.50;;;1.67;;
44764;SDS011;30484;52.382;5.260;2024-03-02T11:03:33;7.80;;;1.30;;
44764;SDS011;30484;52.382;5.260;2024-03-02T11:06:05;5.43;;;1.27;;
44764;SDS011;30484;52.382;5.260;2024-03-02T11:08:37;7.20;;;1.27;;
44764;SDS011;30484;52.382;5.260;2024-03-02T11:11:09;7.18;;;1.10;;
44764;SDS011;30484;52.382;5.260;2024-03-02T11:13:49;7.13;;;1.15;;
44764;SDS011;30484;52.382;5.260;2024-03-02T11:16:22;9.98;;;1.15;;
44764;SDS011;30484;52.382;5.260;2024-03-02T11:19:01;6.57;;;1.27;;
44764;SDS011;30484;52.382;5.260;2024-03-02T11:21:33;6.03;;;1.15;;
44764;SDS011;30484;52.382;5.260;2024-03-02T11:27:04;5.43;;;1.20;;
44764;SDS011;30484;52.382;5.260;2024-03-02T11:32:22;6.00;;;1.20;;
44764;SDS011;30484;52.382;5.260;2024-03-02T11:35:54;9.40;;;1.15;;
44764;SDS011;30484;52.382;5.260;2024-03-02T11:39:22;6.97;;;1.23;;
44764;SDS011;30484;52.382;5.260;2024-03-02T11:42:50;6.13;;;1.25;;
44764;SDS011;30484;52.382;5.260;2024-03-02T11:46:19;9.32;;;1.23;;
44764;SDS011;30484;52.382;5.260;2024-03-02T11:49:49;3.20;;;0.80;;
44764;SDS011;30484;52.382;5.260;2024-03-02T11:53:20;4.20;;;1.23;;
44764;SDS011;30484;52.382;5.260;2024-03-02T11:56:49;4.97;;;1.15;;
44764;SDS011;30484;52.382;5.260;2024-03-02T12:00:16;6.60;;;1.27;;
44764;SDS011;30484;52.382;5.260;2024-03-02T12:03:45;5.47;;;1.15;;
44764;SDS011;30484;52.382;5.260;2024-03-02T12:07:13;5.30;;;1.00;;
44764;SDS011;30484;52.382;5.260;2024-03-02T12:10:55;6.40;;;1.10;;
44764;SDS011;30484;52.382;5.260;2024-03-02T12:14:30;5.45;;;0.90;;
44764;SDS011;30484;52.382;5.260;2024-03-02T12:17:58;6.28;;;1.38;;
44764;SDS011;30484;52.382;5.260;2024-03-02T12:21:27;4.10;;;0.90;;
44764;SDS011;30484;52.382;5.260;2024-03-02T12:24:54;4.25;;;1.10;;
44764;SDS011;30484;52.382;5.260;2024-03-02T12:28:22;5.50;;;1.10;;
44764;SDS011;30484;52.382;5.260;2024-03-02T12:31:49;3.00;;;0.80;;
44764;SDS011;30484;52.382;5.260;2024-03-02T12:35:19;3.40;;;0.82;;
44764;SDS011;30484;52.382;5.260;2024-03-02T12:38:46;8.68;;;1.55;;
44764;SDS011;30484;52.382;5.260;2024-03-02T12:42:14;7.00;;;1.20;;
44764;SDS011;30484;52.382;5.260;2024-03-02T12:45:42;7.63;;;1.00;;
44764;SDS011;30484;52.382;5.260;2024-03-02T12:49:10;5.60;;;0.90;;
44764;SDS011;30484;52.382;5.260;2024-03-02T12:52:39;6.50;;;1.00;;
44764;SDS011;30484;52.382;5.260;2024-03-02T12:56:07;5.57;;;1.05;;
44764;SDS011;30484;52.382;5.260;2024-03-02T12:59:34;3.63;;;0.90;;
44764;SDS011;30484;52.382;5.260;2024-03-02T13:03:02;3.70;;;0.90;;
44764;SDS011;30484;52.382;5.260;2024-03-02T13:10:01;3.83;;;0.80;;
44764;SDS011;30484;52.382;5.260;2024-03-02T13:13:30;4.38;;;1.10;;
44764;SDS011;30484;52.382;5.260;2024-03-02T13:16:59;4.82;;;1.10;;
44764;SDS011;30484;52.382;5.260;2024-03-02T13:20:29;3.28;;;0.77;;
44764;SDS011;30484;52.382;5.260;2024-03-02T13:23:58;3.92;;;1.08;;
44764;SDS011;30484;52.382;5.260;2024-03-02T13:27:27;6.88;;;1.13;;
44764;SDS011;30484;52.382;5.260;2024-03-02T13:30:55;5.13;;;1.05;;
44764;SDS011;30484;52.382;5.260;2024-03-02T13:34:24;4.32;;;0.88;;
44764;SDS011;30484;52.382;5.260;2024-03-02T13:37:51;2.78;;;0.95;;
44764;SDS011;30484;52.382;5.260;2024-03-02T13:41:18;5.63;;;1.00;;
44764;SDS011;30484;52.382;5.260;2024-03-02T13:44:46;5.35;;;1.27;;
44764;SDS011;30484;52.382;5.260;2024-03-02T13:48:14;5.43;;;1.25;;
44764;SDS011;30484;52.382;5.260;2024-03-02T13:55:09;7.55;;;1.10;;
44764;SDS011;30484;52.382;5.260;2024-03-02T14:02:04;2.13;;;1.10;;
44764;SDS011;30484;52.382;5.260;2024-03-02T14:05:32;3.53;;;2.03;;
44764;SDS011;30484;52.382;5.260;2024-03-02T14:12:26;6.85;;;1.30;;
44764;SDS011;30484;52.382;5.260;2024-03-02T14:15:53;6.95;;;1.50;;
44764;SDS011;30484;52.382;5.260;2024-03-02T14:19:23;4.00;;;1.13;;
44764;SDS011;30484;52.382;5.260;2024-03-02T14:22:50;6.78;;;1.40;;
44764;SDS011;30484;52.382;5.260;2024-03-02T14:26:17;8.95;;;1.50;;
44764;SDS011;30484;52.382;5.260;2024-03-02T14:30:03;6.13;;;1.50;;
44764;SDS011;30484;52.382;5.260;2024-03-02T14:33:31;4.53;;;1.20;;
44764;SDS011;30484;52.382;5.260;2024-03-02T14:37:03;5.82;;;1.40;;
44764;SDS011;30484;52.382;5.260;2024-03-02T14:40:30;5.88;;;1.40;;
44764;SDS011;30484;52.382;5.260;2024-03-02T14:43:57;6.90;;;1.00;;
44764;SDS011;30484;52.382;5.260;2024-03-02T14:47:25;6.70;;;1.52;;
44764;SDS011;30484;52.382;5.260;2024-03-02T14:50:53;5.25;;;1.20;;
44764;SDS011;30484;52.382;5.260;2024-03-02T14:54:20;7.40;;;1.23;;
44764;SDS011;30484;52.382;5.260;2024-03-02T14:57:47;5.57;;;1.10;;
44764;SDS011;30484;52.382;5.260;2024-03-02T15:01:14;6.22;;;1.70;;
44764;SDS011;30484;52.382;5.260;2024-03-02T15:04:41;5.75;;;1.30;;
44764;SDS011;30484;52.382;5.260;2024-03-02T15:08:10;3.63;;;1.33;;
44764;SDS011;30484;52.382;5.260;2024-03-02T15:11:38;7.78;;;1.83;;
44764;SDS011;30484;52.382;5.260;2024-03-02T15:15:05;3.38;;;1.27;;
44764;SDS011;30484;52.382;5.260;2024-03-02T15:18:33;5.50;;;1.17;;
44764;SDS011;30484;52.382;5.260;2024-03-02T15:22:00;6.40;;;1.35;;
44764;SDS011;30484;52.382;5.260;2024-03-02T15:25:28;3.25;;;1.02;;
44764;SDS011;30484;52.382;5.260;2024-03-02T15:28:55;7.25;;;1.35;;
44764;SDS011;30484;52.382;5.260;2024-03-02T15:32:23;3.33;;;1.50;;
44764;SDS011;30484;52.382;5.260;2024-03-02T15:35:55;2.42;;;1.20;;
44764;SDS011;30484;52.382;5.260;2024-03-02T15:39:23;4.55;;;1.17;;
44764;SDS011;30484;52.382;5.260;2024-03-02T15:42:52;7.38;;;1.13;;
44764;SDS011;30484;52.382;5.260;2024-03-02T15:46:19;3.67;;;1.20;;
44764;SDS011;30484;52.382;5.260;2024-03-02T15:49:46;5.80;;;1.30;;
44764;SDS011;30484;52.382;5.260;2024-03-02T15:53:13;8.38;;;1.50;;
44764;SDS011;30484;52.382;5.260;2024-03-02T15:56:40;5.88;;;1.05;;
44764;SDS011;30484;52.382;5.260;2024-03-02T16:00:09;2.78;;;1.02;;
44764;SDS011;30484;52.382;5.260;2024-03-02T16:03:37;6.88;;;1.23;;
44764;SDS011;30484;52.382;5.260;2024-03-02T16:10:31;6.07;;;1.20;;
44764;SDS011;30484;52.382;5.260;2024-03-02T16:14:00;4.82;;;1.13;;
44764;SDS011;30484;52.382;5.260;2024-03-02T16:17:29;6.25;;;1.40;;
44764;SDS011;30484;52.382;5.260;2024-03-02T16:20:56;7.28;;;1.63;;
44764;SDS011;30484;52.382;5.260;2024-03-02T16:24:23;7.88;;;1.27;;
44764;SDS011;30484;52.382;5.260;2024-03-02T16:27:51;7.43;;;1.40;;
44764;SDS011;30484;52.382;5.260;2024-03-02T16:31:18;6.60;;;1.65;;
44764;SDS011;30484;52.382;5.260;2024-03-02T16:34:46;5.82;;;1.88;;
44764;SDS011;30484;52.382;5.260;2024-03-02T16:38:15;6.00;;;1.42;;
44764;SDS011;30484;52.382;5.260;2024-03-02T16:45:09;4.18;;;1.30;;
44764;SDS011;30484;52.382;5.260;2024-03-02T16:52:05;3.27;;;1.10;;
44764;SDS011;30484;52.382;5.260;2024-03-02T16:55:32;10.88;;;1.42;;
44764;SDS011;30484;52.382;5.260;2024-03-02T16:59:05;3.88;;;1.20;;